Time;durP1;ratioP1;P1;durP2;ratioP2;P2;SDS_P1;SDS_P2;PMS_P1;PMS_P2;Temp;Humidity;BMP_temperature;BMP_pressure;BME280_temperature;BME280_humidity;BME280_pressure;Samples;Min_cycle;Max_cycle;Signal;HPM_P1;HPM_P2
2023/10/31 00:00:04;;;;;;;17.10;2.90;;;14.20;99.90;;;;;;5040421;28;19912;-70
2023/10/31 00:02:32;;;;;;;5.85;3.10;;;14.20;99.90;;;;;;5038705;28;20034;-69
2023/10/31 00:05:00;;;;;;;9.07;3.35;;;14.20;99.90;;;;;;5042693;28;20086;-69
2023/10/31 00:07:26;;;;;;;5.07;3.10;;;14.20;99.90;;;;;;5045910;28;20045;-70
2023/10/31 00:09:51;;;;;;;4.88;2.78;;;14.10;99.90;;;;;;5039157;28;20030;-70
2023/10/31 00:12:17;;;;;;;6.93;3.15;;;14.00;99.90;;;;;;5039675;28;20036;-70
2023/10/31 00:14:42;;;;;;;7.53;2.80;;;14.00;99.90;;;;;;5044763;28;20042;-69
2023/10/31 00:17:08;;;;;;;7.95;2.97;;;14.10;99.90;;;;;;5047516;28;20029;-70
2023/10/31 00:19:33;;;;;;;3.50;2.45;;;14.10;99.90;;;;;;5045924;28;20439;-70
2023/10/31 00:21:59;;;;;;;8.93;2.70;;;14.10;99.90;;;;;;5047300;28;20021;-69
2023/10/31 00:24:25;;;;;;;4.82;2.78;;;14.00;99.90;;;;;;5047277;28;20021;-69
2023/10/31 00:26:51;;;;;;;5.88;2.88;;;14.00;99.90;;;;;;5040869;28;20043;-70
2023/10/31 00:29:17;;;;;;;11.38;3.25;;;14.00;99.90;;;;;;5043583;28;20426;-70
2023/10/31 00:31:43;;;;;;;4.85;2.60;;;14.00;99.90;;;;;;5046513;28;20033;-70
2023/10/31 00:34:11;;;;;;;7.55;3.15;;;14.00;99.90;;;;;;5044637;28;20392;-69
2023/10/31 00:36:36;;;;;;;;;;;14.10;99.90;;;;;;5045897;28;20104;-70
2023/10/31 00:39:02;;;;;;;4.72;2.30;;;14.00;99.90;;;;;;5047427;28;20183;-69
2023/10/31 00:41:27;;;;;;;6.05;2.50;;;14.10;99.90;;;;;;5043450;28;20032;-69
2023/10/31 00:43:53;;;;;;;3.58;2.60;;;14.00;99.90;;;;;;5050186;28;20074;-70
2023/10/31 00:46:18;;;;;;;3.33;1.92;;;13.90;99.90;;;;;;5045279;28;20116;-69
2023/10/31 00:48:44;;;;;;;4.25;2.60;;;13.90;99.90;;;;;;5043356;28;20029;-69
2023/10/31 00:51:12;;;;;;;7.15;2.47;;;14.00;99.90;;;;;;5042581;28;20025;-69
2023/10/31 00:53:38;;;;;;;5.32;2.45;;;14.00;99.90;;;;;;5041533;28;20079;-69
2023/10/31 00:56:06;;;;;;;6.75;2.30;;;14.00;99.90;;;;;;5046735;28;20037;-70
2023/10/31 00:58:32;;;;;;;4.65;1.95;;;14.00;99.90;;;;;;5049597;28;20032;-70
2023/10/31 01:01:00;;;;;;;4.50;1.98;;;14.10;99.90;;;;;;5041618;28;20396;-70
2023/10/31 01:03:28;;;;;;;;;;;14.10;99.90;;;;;;5044667;28;20488;-70
2023/10/31 01:05:54;;;;;;;6.43;2.22;;;14.20;99.90;;;;;;5038710;28;20111;-70
2023/10/31 01:08:19;;;;;;;2.72;1.92;;;14.00;99.90;;;;;;5048205;28;20025;-70
2023/10/31 01:10:48;;;;;;;4.35;2.03;;;14.00;99.90;;;;;;5042771;28;20072;-70
2023/10/31 01:13:16;;;;;;;5.40;1.75;;;14.10;99.90;;;;;;5040994;28;20029;-70
2023/10/31 01:15:42;;;;;;;3.30;2.00;;;14.00;99.90;;;;;;5046865;28;20108;-70
2023/10/31 01:18:07;;;;;;;5.28;1.73;;;14.10;99.90;;;;;;5046385;28;20112;-70
2023/10/31 01:20:33;;;;;;;4.10;2.17;;;14.10;99.90;;;;;;5042647;28;20029;-70
2023/10/31 01:22:58;;;;;;;3.95;2.00;;;14.20;99.90;;;;;;5048581;28;20068;-70
2023/10/31 01:25:24;;;;;;;3.55;2.17;;;14.10;99.90;;;;;;5046000;28;20021;-69
2023/10/31 01:27:51;;;;;;;10.55;2.35;;;14.20;99.90;;;;;;5041483;28;20024;-69
2023/10/31 01:30:17;;;;;;;6.25;1.88;;;14.20;99.90;;;;;;5040058;28;20036;-70
2023/10/31 01:32:43;;;;;;;5.68;2.00;;;14.10;99.90;;;;;;5044982;28;20036;-69
2023/10/31 01:35:08;;;;;;;3.95;2.00;;;14.10;99.90;;;;;;5044298;28;20085;-69
2023/10/31 01:37:34;;;;;;;6.85;1.98;;;14.10;99.90;;;;;;5044117;28;20025;-70
2023/10/31 01:39:59;;;;;;;4.25;2.42;;;14.10;99.90;;;;;;5042065;28;20032;-70
2023/10/31 01:42:25;;;;;;;6.05;2.53;;;14.10;99.90;;;;;;5043796;28;20036;-69
2023/10/31 01:44:53;;;;;;;6.45;2.38;;;14.10;99.90;;;;;;5041338;28;20108;-70
2023/10/31 01:47:18;;;;;;;5.68;2.20;;;14.20;99.90;;;;;;5040456;28;20095;-70
2023/10/31 01:49:46;;;;;;;4.45;2.60;;;14.20;99.90;;;;;;5044614;28;20585;-69
2023/10/31 01:52:11;;;;;;;7.55;2.30;;;14.20;99.90;;;;;;5045088;28;20107;-69
2023/10/31 01:54:40;;;;;;;8.98;3.13;;;14.10;99.90;;;;;;5042088;28;20111;-70
2023/10/31 01:57:07;;;;;;;;;;;14.20;99.90;;;;;;5047306;28;20108;-70
2023/10/31 01:59:35;;;;;;;3.22;2.35;;;14.10;99.90;;;;;;5043921;28;20340;-70
2023/10/31 02:02:03;;;;;;;5.20;2.50;;;14.00;99.90;;;;;;5041708;28;20875;-70
2023/10/31 02:04:29;;;;;;;;;;;14.00;99.90;;;;;;5040488;28;20044;-70
2023/10/31 02:06:55;;;;;;;3.25;2.08;;;14.10;99.90;;;;;;5042938;28;19933;-70
2023/10/31 02:09:24;;;;;;;2.95;2.03;;;14.10;99.90;;;;;;5045472;28;20037;-69
2023/10/31 02:11:50;;;;;;;6.45;2.85;;;14.10;99.90;;;;;;5047184;28;20100;-70
2023/10/31 02:14:15;;;;;;;3.90;2.40;;;14.20;99.90;;;;;;5042020;28;20112;-69
2023/10/31 02:16:41;;;;;;;4.72;2.47;;;14.20;99.90;;;;;;5042065;28;20123;-70
2023/10/31 02:19:07;;;;;;;8.90;2.92;;;14.20;99.90;;;;;;5042439;28;20567;-70
2023/10/31 02:21:35;;;;;;;4.72;2.95;;;14.30;99.90;;;;;;5047110;28;20029;-70
2023/10/31 02:24:02;;;;;;;3.85;2.20;;;14.20;99.90;;;;;;5044901;28;20200;-70
2023/10/31 02:26:35;;;;;;;5.13;2.60;;;14.30;99.90;;;;;;5040846;28;20060;-70
2023/10/31 02:29:04;;;;;;;6.40;2.78;;;14.30;99.90;;;;;;5039750;28;20025;-70
2023/10/31 02:31:32;;;;;;;6.75;2.88;;;14.30;99.90;;;;;;5044186;28;20091;-70
2023/10/31 02:33:58;;;;;;;5.00;2.75;;;14.30;99.90;;;;;;5045131;28;20025;-69
2023/10/31 02:36:23;;;;;;;4.70;2.75;;;14.30;99.90;;;;;;5043289;28;20116;-69
2023/10/31 02:38:49;;;;;;;9.48;3.25;;;14.30;99.90;;;;;;5044131;28;20033;-69
2023/10/31 02:41:15;;;;;;;16.80;5.13;;;14.30;99.90;;;;;;5045416;28;20050;-70
2023/10/31 02:43:41;;;;;;;5.80;2.90;;;14.30;99.90;;;;;;5044644;28;20033;-70
2023/10/31 02:46:10;;;;;;;4.00;2.80;;;14.30;99.90;;;;;;5043331;28;20498;-70
2023/10/31 02:48:39;;;;;;;3.60;2.45;;;14.20;99.90;;;;;;5044381;28;20029;-69
2023/10/31 02:51:05;;;;;;;4.15;2.75;;;14.20;99.90;;;;;;5041397;28;20021;-70
2023/10/31 02:53:31;;;;;;;6.13;2.55;;;14.30;99.90;;;;;;5039596;28;20084;-70
2023/10/31 02:55:56;;;;;;;5.35;2.65;;;14.40;99.90;;;;;;5045448;28;20072;-70
2023/10/31 02:58:22;;;;;;;4.72;2.65;;;14.30;99.90;;;;;;5045177;28;20037;-69
2023/10/31 03:00:48;;;;;;;5.28;2.88;;;14.40;99.90;;;;;;5040574;28;20532;-69
2023/10/31 03:03:13;;;;;;;4.47;2.65;;;14.40;99.90;;;;;;5040210;28;20479;-70
2023/10/31 03:05:39;;;;;;;7.13;2.80;;;14.40;99.90;;;;;;5042485;28;20070;-69
2023/10/31 03:08:07;;;;;;;5.63;3.63;;;14.40;99.90;;;;;;5043421;28;20021;-70
2023/10/31 03:10:32;;;;;;;4.57;2.47;;;14.40;99.90;;;;;;5042344;28;20021;-70
2023/10/31 03:12:59;;;;;;;5.30;2.53;;;14.40;99.90;;;;;;5043008;28;20036;-70
2023/10/31 03:15:24;;;;;;;8.30;2.95;;;14.40;99.90;;;;;;5043409;28;20028;-70
2023/10/31 03:17:50;;;;;;;4.82;2.55;;;14.40;99.90;;;;;;5039805;28;20083;-70
2023/10/31 03:20:16;;;;;;;4.57;2.17;;;14.40;99.90;;;;;;5040405;28;20053;-70
2023/10/31 03:22:41;;;;;;;5.47;2.53;;;14.30;99.90;;;;;;5040502;28;20036;-70
2023/10/31 03:25:07;;;;;;;5.00;2.17;;;14.40;99.90;;;;;;5043751;28;20287;-70
2023/10/31 03:27:32;;;;;;;2.40;2.20;;;14.40;99.90;;;;;;5036085;28;20033;-69
2023/10/31 03:29:58;;;;;;;6.07;2.30;;;14.40;99.90;;;;;;5041016;28;20064;-70
2023/10/31 03:32:26;;;;;;;10.10;2.67;;;14.40;99.90;;;;;;5043661;28;20605;-69
2023/10/31 03:34:51;;;;;;;;;;;14.40;99.90;;;;;;5040109;28;20022;-70
2023/10/31 03:37:17;;;;;;;3.33;2.22;;;14.40;99.90;;;;;;5044539;28;19935;-70
2023/10/31 03:39:45;;;;;;;8.30;2.05;;;14.30;99.90;;;;;;5041725;28;20045;-70
2023/10/31 03:42:10;;;;;;;2.33;1.63;;;14.30;99.90;;;;;;5041750;28;20041;-70
2023/10/31 03:44:36;;;;;;;2.55;1.60;;;14.20;99.90;;;;;;5042548;28;20033;-70
2023/10/31 03:47:02;;;;;;;2.72;1.75;;;14.10;99.90;;;;;;5041340;28;20502;-70
2023/10/31 03:49:30;;;;;;;3.38;1.98;;;14.10;99.90;;;;;;5042818;28;20029;-69
2023/10/31 03:51:55;;;;;;;1.65;1.52;;;14.00;99.90;;;;;;5036519;28;20032;-70
2023/10/31 03:54:21;;;;;;;3.47;2.08;;;14.10;99.90;;;;;;5039550;28;20029;-70
2023/10/31 03:56:47;;;;;;;2.47;1.80;;;14.00;99.90;;;;;;5044153;28;20032;-70
2023/10/31 03:59:15;;;;;;;2.50;2.17;;;13.90;99.90;;;;;;5041408;28;20455;-69
2023/10/31 04:01:40;;;;;;;2.70;2.13;;;13.80;99.90;;;;;;5041546;28;20021;-69
2023/10/31 04:04:06;;;;;;;2.95;2.35;;;13.90;99.90;;;;;;5038074;28;20037;-70
2023/10/31 04:06:32;;;;;;;3.20;2.63;;;13.80;99.90;;;;;;5042361;28;20035;-69
2023/10/31 04:08:57;;;;;;;2.50;2.30;;;13.70;99.90;;;;;;5042620;28;20430;-70
2023/10/31 04:11:23;;;;;;;2.65;2.03;;;13.70;99.90;;;;;;5040501;28;20059;-69
2023/10/31 04:13:51;;;;;;;4.63;2.17;;;13.70;99.90;;;;;;5040179;28;20100;-70
2023/10/31 04:16:19;;;;;;;2.35;2.00;;;13.60;99.90;;;;;;5039775;28;20046;-70
2023/10/31 04:18:45;;;;;;;;;;;13.60;99.90;;;;;;5043539;28;20044;-70
2023/10/31 04:21:10;;;;;;;2.03;1.70;;;13.60;99.90;;;;;;5039170;28;19912;-69
2023/10/31 04:23:36;;;;;;;3.30;1.27;;;13.50;99.90;;;;;;5041868;28;20080;-71
2023/10/31 04:26:02;;;;;;;4.20;1.27;;;13.40;99.90;;;;;;5043545;28;20025;-70
2023/10/31 04:28:27;;;;;;;1.23;1.10;;;13.30;99.90;;;;;;5041984;28;20037;-71
2023/10/31 04:30:53;;;;;;;3.15;1.25;;;13.30;99.90;;;;;;5040710;28;20078;-71
2023/10/31 04:33:21;;;;;;;0.98;0.98;;;13.30;99.90;;;;;;5041970;28;20053;-70
2023/10/31 04:35:47;;;;;;;1.42;1.00;;;13.20;99.90;;;;;;5038994;28;20087;-71
2023/10/31 04:38:17;;;;;;;3.60;0.90;;;13.20;99.90;;;;;;5038691;28;20038;-70
2023/10/31 04:40:43;;;;;;;0.80;0.80;;;13.20;99.90;;;;;;5039116;28;20399;-70
2023/10/31 04:43:11;;;;;;;1.05;0.85;;;13.10;99.90;;;;;;5043424;28;20037;-71
2023/10/31 04:45:36;;;;;;;0.63;0.63;;;13.10;99.90;;;;;;5041538;28;20029;-70
2023/10/31 04:48:02;;;;;;;0.98;0.70;;;13.10;99.90;;;;;;5041594;28;20099;-71
2023/10/31 04:50:27;;;;;;;0.40;0.40;;;13.10;99.90;;;;;;5039518;28;20045;-70
2023/10/31 04:52:55;;;;;;;0.50;0.50;;;13.10;99.90;;;;;;5040784;28;20029;-70
2023/10/31 04:55:23;;;;;;;0.45;0.40;;;13.10;99.90;;;;;;5043965;28;20037;-70
2023/10/31 04:57:49;;;;;;;2.83;0.70;;;13.10;99.90;;;;;;5042928;28;20032;-70
2023/10/31 05:00:15;;;;;;;0.47;0.30;;;13.00;99.90;;;;;;5045194;28;20022;-70
2023/10/31 05:02:40;;;;;;;3.22;0.30;;;13.00;99.90;;;;;;5042383;28;20022;-70
2023/10/31 05:05:06;;;;;;;0.40;0.10;;;12.90;99.90;;;;;;5044590;28;20029;-70
2023/10/31 05:07:32;;;;;;;0.10;0.10;;;12.90;99.90;;;;;;5045136;28;20094;-70
2023/10/31 05:09:59;;;;;;;0.57;0.10;;;12.90;99.90;;;;;;5042796;28;20096;-70
2023/10/31 05:12:24;;;;;;;2.15;0.20;;;12.90;99.90;;;;;;5047125;28;20017;-70
2023/10/31 05:14:50;;;;;;;3.40;0.22;;;12.80;99.90;;;;;;5043286;28;20025;-70
2023/10/31 05:17:16;;;;;;;0.15;0.15;;;12.90;99.90;;;;;;5044442;28;20033;-70
2023/10/31 05:19:41;;;;;;;0.30;0.10;;;12.80;99.90;;;;;;5045586;28;20031;-71
2023/10/31 05:22:07;;;;;;;0.10;0.10;;;12.70;99.90;;;;;;5045586;28;20101;-70
2023/10/31 05:24:32;;;;;;;0.85;0.25;;;12.60;99.90;;;;;;5044830;28;20030;-70
2023/10/31 05:27:00;;;;;;;5.72;0.10;;;12.60;99.90;;;;;;5043865;28;20059;-71
2023/10/31 05:29:26;;;;;;;0.17;0.10;;;12.50;99.90;;;;;;5043658;28;20024;-70
2023/10/31 05:31:51;;;;;;;0.10;0.10;;;12.60;99.90;;;;;;5045905;28;20033;-70
2023/10/31 05:34:17;;;;;;;0.20;0.03;;;12.60;99.90;;;;;;5045362;28;20033;-70
2023/10/31 05:36:45;;;;;;;0.60;0.20;;;12.60;99.90;;;;;;5044234;28;20065;-70
2023/10/31 05:39:13;;;;;;;0.08;0.03;;;12.50;99.90;;;;;;5043294;28;20067;-71
2023/10/31 05:41:38;;;;;;;1.35;0.13;;;12.50;99.90;;;;;;5040683;28;20056;-71
2023/10/31 05:44:04;;;;;;;0.43;0.10;;;12.50;99.90;;;;;;5042727;28;20471;-70
2023/10/31 05:46:29;;;;;;;0.40;0.15;;;12.50;99.90;;;;;;5041954;28;20074;-70
2023/10/31 05:48:57;;;;;;;1.17;0.20;;;12.50;99.90;;;;;;5046886;28;20036;-70
2023/10/31 05:51:25;;;;;;;0.82;0.10;;;12.60;99.90;;;;;;5043031;28;20056;-70
2023/10/31 05:53:53;;;;;;;0.70;0.10;;;12.50;99.90;;;;;;5041917;28;20631;-70
2023/10/31 05:56:18;;;;;;;0.10;0.10;;;12.50;99.90;;;;;;5048073;28;20467;-70
2023/10/31 05:58:44;;;;;;;1.60;0.20;;;12.50;99.90;;;;;;5045131;28;20024;-70
2023/10/31 06:01:12;;;;;;;1.63;0.30;;;12.50;99.90;;;;;;5041638;28;20029;-70
2023/10/31 06:03:42;;;;;;;0.43;0.20;;;12.50;99.90;;;;;;5044469;28;21251;-70
2023/10/31 06:06:09;;;;;;;0.88;0.30;;;12.50;99.90;;;;;;5038936;28;20028;-70
2023/10/31 06:08:37;;;;;;;0.75;0.20;;;12.50;99.90;;;;;;5039469;28;20693;-70
2023/10/31 06:11:03;;;;;;;;;;;12.60;99.90;;;;;;5039583;28;20029;-70
2023/10/31 06:13:31;;;;;;;1.35;0.22;;;12.50;99.90;;;;;;5046391;28;19908;-71
2023/10/31 06:15:57;;;;;;;0.30;0.20;;;12.60;99.90;;;;;;5044232;28;20036;-70
2023/10/31 06:18:23;;;;;;;3.33;0.30;;;12.50;99.90;;;;;;5045142;28;20041;-70
2023/10/31 06:20:49;;;;;;;2.17;0.50;;;12.50;99.90;;;;;;5040494;28;20029;-70
2023/10/31 06:23:14;;;;;;;1.30;0.60;;;12.50;99.90;;;;;;5042101;28;20077;-71
2023/10/31 06:25:40;;;;;;;4.78;0.73;;;12.40;99.90;;;;;;5044717;28;20037;-70
2023/10/31 06:28:06;;;;;;;1.50;0.60;;;12.50;99.90;;;;;;5042725;28;20029;-70
2023/10/31 06:30:34;;;;;;;3.15;0.70;;;12.50;99.90;;;;;;5032133;28;20407;-71
2023/10/31 06:33:00;;;;;;;1.83;0.60;;;12.40;99.90;;;;;;5047657;28;20036;-71
2023/10/31 06:35:28;;;;;;;1.60;0.68;;;12.40;99.90;;;;;;5042544;28;20585;-71
2023/10/31 06:37:57;;;;;;;2.40;0.90;;;12.40;99.90;;;;;;5040823;28;20026;-71
2023/10/31 06:40:26;;;;;;;3.70;1.00;;;12.50;99.90;;;;;;5044713;28;20033;-71
2023/10/31 06:42:56;;;;;;;1.20;1.02;;;12.50;99.90;;;;;;5043267;28;20044;-71
2023/10/31 06:45:22;;;;;;;1.40;0.75;;;12.40;99.90;;;;;;5043100;28;20025;-70
2023/10/31 06:47:47;;;;;;;2.58;1.13;;;12.40;99.90;;;;;;5042700;28;20055;-71
2023/10/31 06:50:15;;;;;;;3.80;1.02;;;12.50;99.90;;;;;;5043281;28;20387;-71
2023/10/31 06:52:43;;;;;;;3.72;1.05;;;12.50;99.90;;;;;;5041810;28;20029;-71
2023/10/31 06:55:11;;;;;;;3.70;1.17;;;12.40;99.90;;;;;;5043059;28;20056;-72
2023/10/31 06:57:37;;;;;;;;;;;12.20;99.90;;;;;;5042087;28;20033;-71
2023/10/31 07:00:03;;;;;;;3.28;0.80;;;12.30;99.90;;;;;;5041037;28;19909;-71
2023/10/31 07:02:29;;;;;;;3.92;1.20;;;12.20;99.90;;;;;;5044875;28;20025;-71
2023/10/31 07:04:56;;;;;;;5.20;1.20;;;12.20;99.90;;;;;;5038822;28;20555;-70
2023/10/31 07:07:24;;;;;;;4.00;1.40;;;12.30;99.90;;;;;;5043975;28;20095;-70
2023/10/31 07:09:50;;;;;;;;;;;12.30;99.90;;;;;;5045351;28;20385;-70
2023/10/31 07:12:16;;;;;;;5.43;1.73;;;12.40;99.90;;;;;;5047254;28;19917;-70
2023/10/31 07:14:44;;;;;;;2.08;1.13;;;12.40;99.90;;;;;;5042851;28;20025;-70
2023/10/31 07:17:09;;;;;;;5.90;1.35;;;12.40;99.90;;;;;;5043099;28;20048;-70
2023/10/31 07:19:37;;;;;;;1.83;1.00;;;12.30;99.90;;;;;;5042908;28;20025;-70
2023/10/31 07:22:03;;;;;;;4.22;1.48;;;12.30;99.90;;;;;;5039397;28;20503;-70
2023/10/31 07:24:29;;;;;;;2.92;1.38;;;12.40;99.90;;;;;;5042148;28;20064;-70
2023/10/31 07:26:55;;;;;;;4.20;1.35;;;12.30;99.90;;;;;;5039989;28;20025;-70
2023/10/31 07:29:25;;;;;;;3.30;1.40;;;12.30;99.90;;;;;;5043089;28;20071;-71
2023/10/31 07:31:50;;;;;;;1.65;1.20;;;12.30;99.90;;;;;;5040950;28;20468;-70
2023/10/31 07:34:18;;;;;;;3.20;1.27;;;12.30;99.90;;;;;;5042505;28;20033;-70
2023/10/31 07:36:44;;;;;;;1.30;1.13;;;12.30;99.90;;;;;;5042304;28;20052;-71
2023/10/31 07:39:12;;;;;;;3.53;1.60;;;12.30;99.90;;;;;;5045406;28;20487;-70
2023/10/31 07:41:38;;;;;;;3.75;1.38;;;12.30;99.90;;;;;;5039595;28;20059;-70
2023/10/31 07:44:04;;;;;;;2.72;1.05;;;12.30;99.90;;;;;;5042906;28;20068;-71
2023/10/31 07:46:34;;;;;;;3.00;0.98;;;12.30;99.90;;;;;;5045667;28;20037;-70
2023/10/31 07:49:02;;;;;;;2.63;1.00;;;12.40;99.90;;;;;;5043046;28;20024;-70
2023/10/31 07:51:28;;;;;;;;;;;12.30;99.90;;;;;;5040008;28;20029;-70
2023/10/31 07:53:57;;;;;;;4.22;1.20;;;12.30;99.90;;;;;;5042176;28;19999;-70
2023/10/31 07:56:25;;;;;;;2.35;0.90;;;12.30;99.90;;;;;;5045541;28;20542;-70
2023/10/31 07:58:51;;;;;;;1.55;1.13;;;12.30;99.90;;;;;;5044239;28;20061;-70
2023/10/31 08:01:20;;;;;;;3.35;1.20;;;12.30;99.90;;;;;;5042933;28;20494;-70
2023/10/31 08:03:50;;;;;;;1.60;0.95;;;12.50;99.90;;;;;;5037721;28;20025;-70
2023/10/31 08:06:16;;;;;;;3.83;1.13;;;12.30;99.90;;;;;;5041917;28;20033;-70
2023/10/31 08:08:42;;;;;;;1.92;0.75;;;12.30;99.90;;;;;;5044263;28;20458;-70
2023/10/31 08:11:09;;;;;;;2.33;0.85;;;12.20;99.90;;;;;;5039053;28;20498;-70
2023/10/31 08:13:38;;;;;;;3.25;1.35;;;12.30;99.90;;;;;;5039235;28;20037;-70
2023/10/31 08:16:05;;;;;;;3.50;1.30;;;12.30;99.90;;;;;;5043068;28;20045;-70
2023/10/31 08:18:31;;;;;;;4.33;1.40;;;12.40;99.90;;;;;;5043650;28;20053;-70
2023/10/31 08:20:59;;;;;;;1.58;0.98;;;12.40;99.90;;;;;;5043513;28;20818;-71
2023/10/31 08:23:25;;;;;;;4.13;1.08;;;12.30;99.90;;;;;;5041058;28;20172;-71
2023/10/31 08:25:51;;;;;;;2.42;0.90;;;12.40;99.90;;;;;;5036024;28;20045;-70
2023/10/31 08:28:17;;;;;;;2.15;0.90;;;12.40;99.90;;;;;;5040381;28;20040;-71
2023/10/31 08:30:42;;;;;;;2.42;1.10;;;12.30;99.90;;;;;;5042410;28;20025;-70
2023/10/31 08:33:08;;;;;;;1.45;0.70;;;12.40;99.90;;;;;;5043809;28;20025;-70
2023/10/31 08:35:36;;;;;;;1.92;1.02;;;12.20;99.90;;;;;;5043605;28;20040;-72
2023/10/31 08:38:01;;;;;;;2.13;0.82;;;12.30;99.90;;;;;;5043073;28;20653;-72
2023/10/31 08:40:29;;;;;;;2.45;0.90;;;12.30;99.90;;;;;;5045695;28;20439;-70
2023/10/31 08:42:55;;;;;;;3.75;0.80;;;12.40;99.90;;;;;;5045727;28;20021;-70
2023/10/31 08:45:23;;;;;;;0.70;0.50;;;12.30;99.90;;;;;;5045560;28;20376;-71
2023/10/31 08:47:51;;;;;;;0.82;0.70;;;12.40;99.90;;;;;;5044817;28;20498;-70
2023/10/31 08:50:16;;;;;;;1.10;0.70;;;12.40;99.90;;;;;;5045431;28;20645;-71
2023/10/31 08:52:42;;;;;;;1.35;0.90;;;12.30;99.90;;;;;;5042070;28;20086;-70
2023/10/31 08:55:12;;;;;;;3.08;1.00;;;12.30;99.90;;;;;;5045845;28;20025;-70
2023/10/31 08:57:38;;;;;;;2.20;0.80;;;12.30;99.90;;;;;;5045185;28;20411;-71
2023/10/31 09:00:06;;;;;;;2.03;0.70;;;12.30;99.90;;;;;;5042016;28;20033;-71
2023/10/31 09:02:32;;;;;;;3.50;0.70;;;12.30;99.90;;;;;;5042725;28;20052;-70
2023/10/31 09:04:58;;;;;;;1.10;0.65;;;12.40;99.90;;;;;;5040740;28;20067;-70
2023/10/31 09:07:25;;;;;;;2.50;0.70;;;12.40;99.90;;;;;;5045244;28;20044;-70
2023/10/31 09:09:51;;;;;;;4.85;0.98;;;12.50;99.90;;;;;;5048712;28;20108;-71
2023/10/31 09:12:21;;;;;;;1.20;0.77;;;12.40;99.90;;;;;;5043354;28;20116;-70
2023/10/31 09:14:49;;;;;;;3.30;0.77;;;12.40;99.90;;;;;;5043843;28;20057;-71
2023/10/31 09:17:14;;;;;;;1.02;0.70;;;12.50;99.90;;;;;;5042885;28;20037;-71
2023/10/31 09:19:44;;;;;;;5.75;0.98;;;12.40;99.90;;;;;;5043347;28;20041;-72
2023/10/31 09:22:12;;;;;;;1.52;0.80;;;12.50;99.90;;;;;;5039873;28;20025;-71
2023/10/31 09:24:40;;;;;;;1.42;0.82;;;12.60;99.90;;;;;;5039482;28;20033;-71
2023/10/31 09:27:05;;;;;;;1.33;0.70;;;12.60;99.90;;;;;;5043695;28;20052;-71
2023/10/31 09:29:31;;;;;;;0.90;0.60;;;12.60;99.90;;;;;;5045969;28;20065;-72
2023/10/31 09:31:56;;;;;;;0.90;0.63;;;12.60;99.90;;;;;;5043180;28;20132;-71
2023/10/31 09:34:24;;;;;;;3.40;0.70;;;12.60;99.90;;;;;;5044427;28;20037;-71
2023/10/31 09:36:50;;;;;;;0.52;0.43;;;12.60;99.90;;;;;;5039377;28;20055;-71
2023/10/31 09:39:16;;;;;;;1.38;0.60;;;12.60;99.90;;;;;;5042160;28;20471;-71
2023/10/31 09:41:41;;;;;;;1.17;0.60;;;12.50;99.90;;;;;;5044722;28;20034;-72
2023/10/31 09:44:07;;;;;;;1.23;0.63;;;12.50;99.90;;;;;;5043600;28;20025;-72
2023/10/31 09:46:34;;;;;;;1.40;0.70;;;12.50;99.90;;;;;;5042446;28;20029;-72
2023/10/31 09:49:03;;;;;;;1.93;0.60;;;12.40;99.90;;;;;;5041256;28;20017;-71
2023/10/31 09:51:29;;;;;;;1.88;0.77;;;12.40;99.90;;;;;;5041596;28;20761;-71
2023/10/31 09:53:55;;;;;;;1.17;0.50;;;12.50;99.90;;;;;;5043895;28;20032;-71
2023/10/31 09:56:21;;;;;;;2.13;0.75;;;12.50;99.90;;;;;;5043602;28;20564;-71
2023/10/31 09:58:47;;;;;;;1.27;0.50;;;12.40;99.90;;;;;;5040628;28;20024;-70
2023/10/31 10:01:14;;;;;;;0.30;0.30;;;12.40;99.90;;;;;;5041808;28;20716;-70
2023/10/31 10:03:40;;;;;;;1.10;0.32;;;12.40;99.90;;;;;;5042078;28;20498;-69
2023/10/31 10:06:06;;;;;;;1.70;0.45;;;12.50;99.90;;;;;;5042828;28;20025;-70
2023/10/31 10:08:32;;;;;;;0.80;0.40;;;12.50;99.90;;;;;;5043665;28;20032;-70
2023/10/31 10:10:57;;;;;;;1.85;0.35;;;12.40;99.90;;;;;;5043909;28;20030;-70
2023/10/31 10:13:23;;;;;;;1.45;0.40;;;12.30;99.90;;;;;;5042507;28;20052;-69
2023/10/31 10:15:56;;;;;;;1.85;0.22;;;12.40;99.90;;;;;;5042207;28;20059;-73
2023/10/31 10:18:29;;;;;;;0.40;0.22;;;12.40;99.90;;;;;;5042763;28;20025;-65
2023/10/31 10:20:59;;;;;;;1.25;0.32;;;12.30;99.90;;;;;;5043544;28;20090;-69
2023/10/31 10:23:26;;;;;;;2.30;0.38;;;12.40;99.90;;;;;;5041774;28;20017;-70
2023/10/31 10:25:52;;;;;;;0.38;0.32;;;12.30;99.90;;;;;;5040738;28;20033;-69
2023/10/31 10:28:21;;;;;;;0.50;0.40;;;12.30;99.90;;;;;;5045703;28;20521;-70
2023/10/31 10:30:50;;;;;;;1.63;0.40;;;12.40;99.90;;;;;;5039115;28;20033;-74
2023/10/31 10:33:16;;;;;;;1.77;0.25;;;12.50;99.90;;;;;;5039645;28;20479;-72
2023/10/31 10:35:42;;;;;;;1.40;0.40;;;12.50;99.90;;;;;;5040359;28;20041;-70
2023/10/31 10:38:21;;;;;;;1.38;0.30;;;12.60;99.90;;;;;;5038860;28;20031;-70
2023/10/31 10:40:50;;;;;;;1.58;0.47;;;12.60;99.90;;;;;;5040966;28;20035;-70
2023/10/31 10:43:24;;;;;;;2.50;0.40;;;12.60;99.90;;;;;;5041748;28;20104;-69
2023/10/31 10:45:57;;;;;;;0.20;0.20;;;12.60;99.90;;;;;;5041769;28;20040;-69
2023/10/31 10:48:27;;;;;;;0.50;0.30;;;12.70;99.90;;;;;;5042903;28;20036;-70
2023/10/31 10:51:18;;;;;;;1.60;0.30;;;12.80;99.90;;;;;;5041875;28;20021;-69
2023/10/31 10:53:56;;;;;;;0.85;0.10;;;12.70;99.90;;;;;;5042242;28;20025;-70
2023/10/31 10:56:28;;;;;;;0.70;0.55;;;12.80;99.90;;;;;;5041980;28;20036;-70
2023/10/31 10:59:40;;;;;;;0.68;0.30;;;12.90;99.90;;;;;;5043435;28;20112;-69
2023/10/31 11:02:10;;;;;;;2.78;0.32;;;12.90;99.90;;;;;;5039599;28;20033;-69
2023/10/31 11:04:36;;;;;;;0.75;0.50;;;12.90;99.90;;;;;;5042602;28;20371;-69
2023/10/31 11:07:04;;;;;;;0.50;0.50;;;12.80;99.90;;;;;;5043023;28;20036;-69
2023/10/31 11:09:33;;;;;;;0.52;0.38;;;12.80;99.90;;;;;;5041452;28;20112;-69
2023/10/31 11:11:59;;;;;;;0.93;0.40;;;12.80;99.90;;;;;;5043437;28;20072;-69
2023/10/31 11:14:26;;;;;;;4.07;0.63;;;12.80;99.90;;;;;;5044221;28;20025;-70
2023/10/31 11:16:55;;;;;;;0.38;0.30;;;12.80;99.90;;;;;;5040730;28;20598;-70
2023/10/31 11:19:23;;;;;;;2.10;0.50;;;12.90;99.90;;;;;;5042909;28;20029;-69
2023/10/31 11:22:00;;;;;;;2.22;0.40;;;12.80;99.90;;;;;;5041950;28;20026;-69
2023/10/31 11:24:31;;;;;;;0.95;0.52;;;12.80;99.90;;;;;;5041411;28;20040;-70
2023/10/31 11:27:02;;;;;;;2.80;0.50;;;13.00;99.90;;;;;;5041492;28;20032;-70
2023/10/31 11:29:27;;;;;;;2.90;0.50;;;12.90;99.90;;;;;;5040576;28;20044;-70
2023/10/31 11:31:56;;;;;;;1.17;0.50;;;12.90;99.90;;;;;;5042679;28;20481;-68
2023/10/31 11:34:22;;;;;;;0.65;0.40;;;12.80;99.90;;;;;;5038354;28;20079;-66
2023/10/31 11:36:48;;;;;;;3.50;0.63;;;12.80;99.90;;;;;;5046807;28;20021;-69
2023/10/31 11:39:26;;;;;;;1.02;0.77;;;12.80;99.90;;;;;;5043086;28;20033;-66
2023/10/31 11:41:56;;;;;;;4.60;0.95;;;12.80;99.90;;;;;;5040717;28;20029;-71
2023/10/31 11:44:28;;;;;;;1.42;0.50;;;12.90;99.90;;;;;;5043287;28;20053;-70
2023/10/31 11:46:54;;;;;;;1.65;0.50;;;12.90;99.90;;;;;;5037462;28;20390;-70
2023/10/31 11:49:45;;;;;;;3.90;0.50;;;13.00;99.90;;;;;;5042375;28;20522;-71
2023/10/31 11:52:17;;;;;;;0.57;0.40;;;12.90;99.90;;;;;;5040997;28;20029;-69
2023/10/31 11:54:44;;;;;;;1.83;0.60;;;12.90;99.90;;;;;;5039779;28;20025;-66
2023/10/31 11:57:09;;;;;;;0.47;0.45;;;12.90;99.90;;;;;;5044766;28;20075;-71
2023/10/31 11:59:37;;;;;;;1.65;0.55;;;12.90;99.90;;;;;;5040537;28;20061;-70
2023/10/31 12:02:13;;;;;;;0.50;0.35;;;12.90;99.90;;;;;;5044634;28;20033;-69
2023/10/31 12:04:39;;;;;;;2.75;0.80;;;12.90;99.90;;;;;;5039553;28;20045;-70
2023/10/31 12:07:05;;;;;;;1.25;0.70;;;12.90;99.90;;;;;;5045484;28;20203;-71
2023/10/31 12:09:44;;;;;;;1.10;0.52;;;13.00;99.90;;;;;;5040611;28;20029;-68
2023/10/31 12:12:10;;;;;;;1.15;0.60;;;12.90;99.90;;;;;;5044094;28;20549;-71
2023/10/31 12:14:38;;;;;;;0.63;0.52;;;13.00;99.90;;;;;;5048658;28;20168;-69
2023/10/31 12:17:07;;;;;;;1.20;0.65;;;13.00;99.90;;;;;;5045705;28;20402;-69
2023/10/31 12:19:33;;;;;;;1.70;0.98;;;13.00;99.90;;;;;;5047035;28;20473;-68
2023/10/31 12:21:59;;;;;;;1.40;0.65;;;13.10;99.90;;;;;;5045925;28;20041;-66
2023/10/31 12:24:24;;;;;;;1.95;0.68;;;13.00;99.90;;;;;;5036118;28;20063;-69
2023/10/31 12:26:52;;;;;;;0.75;0.60;;;13.00;99.90;;;;;;5044488;28;20844;-69
2023/10/31 12:29:19;;;;;;;2.03;0.80;;;13.10;99.90;;;;;;5048055;28;20029;-69
2023/10/31 12:31:50;;;;;;;2.53;0.95;;;13.10;99.90;;;;;;5048041;28;20390;-69
2023/10/31 12:34:17;;;;;;;1.95;0.68;;;13.10;99.90;;;;;;5046869;28;20025;-70
2023/10/31 12:36:44;;;;;;;0.85;0.70;;;13.10;99.90;;;;;;5041780;28;20025;-69
2023/10/31 12:39:14;;;;;;;3.20;0.80;;;13.10;99.90;;;;;;5043608;28;20120;-69
2023/10/31 12:41:41;;;;;;;1.38;0.70;;;13.20;99.90;;;;;;5040999;28;20029;-69
2023/10/31 12:44:10;;;;;;;3.58;0.80;;;13.20;99.90;;;;;;5044495;28;20529;-68
2023/10/31 12:46:39;;;;;;;1.23;0.77;;;13.20;99.90;;;;;;5040719;28;20843;-68
2023/10/31 12:49:17;;;;;;;1.15;0.70;;;13.20;99.90;;;;;;5046577;28;20398;-69